Overview Statistics Trail Chart Weather Telemetry Raw packets
 

This is the latest recevied weather packets stored in our database for station/object WA1TYB-13. If no packets are shown the sender has not sent any weather packets the latest 10 day(s).

<< 104 105 106 107 108 109 110 >>
Time Temp. Humidity Pressure Rain* Wind** Luminosity Snow
1787825199 12.22° C 75% 1021.1 hPa 0 mm - 0 W/m² -
1787824897 12.22° C 75% 1021.3 hPa 0 mm - 0 W/m² -
1787824595 12.22° C 75% 1021.1 hPa 0 mm - 0 W/m² -
1787824290 12.78° C 74% 1021.2 hPa 0 mm - 0 W/m² -
1787823986 13.33° C 72% 1020.9 hPa 0 mm - 0 W/m² -
1787823681 13.33° C 72% 1021.1 hPa 0 mm - 0 W/m² -
1787823376 13.33° C 72% 1021.2 hPa 0 mm - 0 W/m² -
1787823075 13.33° C 72% 1021.1 hPa 0 mm - 0 W/m² -
1787822769 13.33° C 73% 1020.9 hPa 0 mm - 0 W/m² -
1787822464 12.78° C 73% 1020.9 hPa 0 mm - 0 W/m² -
1787822159 13.89° C 69% 1021.2 hPa 0 mm - 0 W/m² -
1787821857 14.44° C 67% 1021.2 hPa 0 mm - 0 W/m² -
1787821553 15° C 66% 1021.2 hPa 0 mm - 0 W/m² -
1787821248 14.44° C 66% 1021.3 hPa 0 mm - 0 W/m² -
1787820942 14.44° C 68% 1021.5 hPa 0 mm - 0 W/m² -
1787820641 14.44° C 68% 1021.4 hPa 0 mm - 0 W/m² -
1787820337 13.89° C 69% 1021.3 hPa 0 mm - 0 W/m² -
1787820033 13.89° C 69% 1021.4 hPa 0 mm - 0 W/m² -
1787819728 15° C 67% 1021.3 hPa 0 mm - 0 W/m² -
1787819422 15° C 67% 1021.4 hPa 0 mm - 0 W/m² -
1787819122 15° C 68% 1021.3 hPa 0 mm - 0 W/m² -
1787818821 14.44° C 68% 1021.2 hPa 0 mm - 0 W/m² -
1787818515 15° C 66% 1020.9 hPa 0 mm - 0 W/m² -
1787818212 15.56° C 64% 1021.3 hPa 0 mm - 0 W/m² -
1787817911 16.11° C 62% 1021.3 hPa 0 mm - 0 W/m² -

* Rain latest hour (hover to see other rain measurements)
** Current wind speed in m/s (hover to see current wind gust speed)